sensor_id;sensor_type;location;lat;lon;timestamp;temperature;humidity
14057;DHT22;7103;54.300;10.180;2023-10-31T00:01:53;11.50;1.00
14057;DHT22;7103;54.300;10.180;2023-10-31T00:04:22;11.30;1.60
14057;DHT22;7103;54.300;10.180;2023-10-31T00:06:49;11.30;6.20
14057;DHT22;7103;54.300;10.180;2023-10-31T00:09:16;11.30;9.70
14057;DHT22;7103;54.300;10.180;2023-10-31T00:11:44;11.30;15.40
14057;DHT22;7103;54.300;10.180;2023-10-31T00:14:11;11.20;19.70
14057;DHT22;7103;54.300;10.180;2023-10-31T00:16:57;11.30;25.40
14057;DHT22;7103;54.300;10.180;2023-10-31T00:19:25;11.30;30.60
14057;DHT22;7103;54.300;10.180;2023-10-31T00:21:52;11.20;39.20
14057;DHT22;7103;54.300;10.180;2023-10-31T00:24:18;11.20;41.40
14057;DHT22;7103;54.300;10.180;2023-10-31T00:26:46;11.30;52.60
14057;DHT22;7103;54.300;10.180;2023-10-31T00:29:13;11.20;60.00
14057;DHT22;7103;54.300;10.180;2023-10-31T00:31:40;11.20;69.30
14057;DHT22;7103;54.300;10.180;2023-10-31T00:34:08;11.20;80.10
14057;DHT22;7103;54.300;10.180;2023-10-31T00:36:35;11.20;93.20
14057;DHT22;7103;54.300;10.180;2023-10-31T00:39:02;11.40;94.60
14057;DHT22;7103;54.300;10.180;2023-10-31T00:41:30;11.20;96.30
14057;DHT22;7103;54.300;10.180;2023-10-31T00:43:57;11.30;99.90
14057;DHT22;7103;54.300;10.180;2023-10-31T00:46:24;11.40;99.90
14057;DHT22;7103;54.300;10.180;2023-10-31T00:48:51;11.30;99.90
14057;DHT22;7103;54.300;10.180;2023-10-31T00:51:18;11.20;99.90
14057;DHT22;7103;54.300;10.180;2023-10-31T00:53:46;11.20;99.90
14057;DHT22;7103;54.300;10.180;2023-10-31T00:56:12;11.20;99.90
14057;DHT22;7103;54.300;10.180;2023-10-31T00:58:39;11.30;99.90
14057;DHT22;7103;54.300;10.180;2023-10-31T01:01:06;11.30;99.90
14057;DHT22;7103;54.300;10.180;2023-10-31T01:03:34;11.20;99.90
14057;DHT22;7103;54.300;10.180;2023-10-31T01:06:01;11.40;99.90
14057;DHT22;7103;54.300;10.180;2023-10-31T01:08:28;11.20;99.90
14057;DHT22;7103;54.300;10.180;2023-10-31T01:10:55;11.20;99.90
14057;DHT22;7103;54.300;10.180;2023-10-31T01:13:22;11.30;99.90
14057;DHT22;7103;54.300;10.180;2023-10-31T01:15:49;11.20;99.90
14057;DHT22;7103;54.300;10.180;2023-10-31T01:18:16;11.30;99.90
14057;DHT22;7103;54.300;10.180;2023-10-31T01:20:43;11.20;99.90
14057;DHT22;7103;54.300;10.180;2023-10-31T01:23:10;11.30;99.90
14057;DHT22;7103;54.300;10.180;2023-10-31T01:25:37;11.30;99.90
14057;DHT22;7103;54.300;10.180;2023-10-31T01:28:04;11.30;99.90
14057;DHT22;7103;54.300;10.180;2023-10-31T01:30:31;11.30;99.90
14057;DHT22;7103;54.300;10.180;2023-10-31T01:32:58;11.40;99.90
14057;DHT22;7103;54.300;10.180;2023-10-31T01:35:25;11.30;99.90
14057;DHT22;7103;54.300;10.180;2023-10-31T01:37:52;11.30;99.90
14057;DHT22;7103;54.300;10.180;2023-10-31T01:40:19;11.30;99.90
14057;DHT22;7103;54.300;10.180;2023-10-31T01:42:45;11.30;99.90
14057;DHT22;7103;54.300;10.180;2023-10-31T01:45:12;11.30;99.90
14057;DHT22;7103;54.300;10.180;2023-10-31T01:47:39;11.50;99.90
14057;DHT22;7103;54.300;10.180;2023-10-31T01:50:07;11.40;99.90
14057;DHT22;7103;54.300;10.180;2023-10-31T01:52:35;11.40;99.90
14057;DHT22;7103;54.300;10.180;2023-10-31T01:55:04;11.40;99.90
14057;DHT22;7103;54.300;10.180;2023-10-31T01:57:31;11.30;99.90
14057;DHT22;7103;54.300;10.180;2023-10-31T01:59:58;11.50;99.90
14057;DHT22;7103;54.300;10.180;2023-10-31T02:02:27;11.40;99.90
14057;DHT22;7103;54.300;10.180;2023-10-31T02:04:56;11.40;99.90
14057;DHT22;7103;54.300;10.180;2023-10-31T02:07:23;11.40;99.90
14057;DHT22;7103;54.300;10.180;2023-10-31T02:09:50;11.40;99.90
14057;DHT22;7103;54.300;10.180;2023-10-31T02:12:36;11.40;99.90
14057;DHT22;7103;54.300;10.180;2023-10-31T02:15:04;11.40;99.90
14057;DHT22;7103;54.300;10.180;2023-10-31T02:17:32;11.40;99.90
14057;DHT22;7103;54.300;10.180;2023-10-31T02:19:58;11.40;99.90
14057;DHT22;7103;54.300;10.180;2023-10-31T02:22:25;11.30;99.90
14057;DHT22;7103;54.300;10.180;2023-10-31T02:24:52;11.30;99.90
14057;DHT22;7103;54.300;10.180;2023-10-31T02:27:19;11.30;99.90
14057;DHT22;7103;54.300;10.180;2023-10-31T02:29:46;11.50;99.90
14057;DHT22;7103;54.300;10.180;2023-10-31T02:32:13;11.30;99.90
14057;DHT22;7103;54.300;10.180;2023-10-31T02:34:40;11.40;99.90
14057;DHT22;7103;54.300;10.180;2023-10-31T02:37:07;11.40;99.90
14057;DHT22;7103;54.300;10.180;2023-10-31T02:39:35;11.50;99.90
14057;DHT22;7103;54.300;10.180;2023-10-31T02:42:02;11.30;99.90
14057;DHT22;7103;54.300;10.180;2023-10-31T02:44:29;11.30;99.90
14057;DHT22;7103;54.300;10.180;2023-10-31T02:46:56;11.30;99.90
14057;DHT22;7103;54.300;10.180;2023-10-31T02:49:23;11.30;99.90
14057;DHT22;7103;54.300;10.180;2023-10-31T02:51:50;11.30;99.90
14057;DHT22;7103;54.300;10.180;2023-10-31T02:54:17;11.40;99.90
14057;DHT22;7103;54.300;10.180;2023-10-31T02:56:44;11.30;99.90
14057;DHT22;7103;54.300;10.180;2023-10-31T02:59:11;11.40;99.90
14057;DHT22;7103;54.300;10.180;2023-10-31T03:01:38;11.50;99.90
14057;DHT22;7103;54.300;10.180;2023-10-31T03:04:05;11.40;99.90
14057;DHT22;7103;54.300;10.180;2023-10-31T03:06:32;11.40;99.90
14057;DHT22;7103;54.300;10.180;2023-10-31T03:08:59;11.30;99.90
14057;DHT22;7103;54.300;10.180;2023-10-31T03:11:27;11.30;99.90
14057;DHT22;7103;54.300;10.180;2023-10-31T03:13:53;11.40;99.90
14057;DHT22;7103;54.300;10.180;2023-10-31T03:16:21;11.30;99.90
14057;DHT22;7103;54.300;10.180;2023-10-31T03:18:48;11.30;99.90
14057;DHT22;7103;54.300;10.180;2023-10-31T03:21:15;11.30;99.90
14057;DHT22;7103;54.300;10.180;2023-10-31T03:23:47;11.30;99.90
14057;DHT22;7103;54.300;10.180;2023-10-31T03:26:16;11.40;99.90
14057;DHT22;7103;54.300;10.180;2023-10-31T03:28:43;11.50;99.90
14057;DHT22;7103;54.300;10.180;2023-10-31T03:31:12;11.30;99.90
14057;DHT22;7103;54.300;10.180;2023-10-31T03:33:39;11.30;99.90
14057;DHT22;7103;54.300;10.180;2023-10-31T03:36:07;11.30;99.90
14057;DHT22;7103;54.300;10.180;2023-10-31T03:38:35;11.30;99.90
14057;DHT22;7103;54.300;10.180;2023-10-31T03:41:03;11.30;99.90
14057;DHT22;7103;54.300;10.180;2023-10-31T03:43:30;11.30;99.90
14057;DHT22;7103;54.300;10.180;2023-10-31T03:45:57;11.40;99.90
14057;DHT22;7103;54.300;10.180;2023-10-31T03:48:24;11.30;99.90
14057;DHT22;7103;54.300;10.180;2023-10-31T03:50:51;11.30;99.90
14057;DHT22;7103;54.300;10.180;2023-10-31T03:53:18;11.30;99.90
14057;DHT22;7103;54.300;10.180;2023-10-31T03:55:45;11.30;99.90
14057;DHT22;7103;54.300;10.180;2023-10-31T03:58:12;11.20;99.90
14057;DHT22;7103;54.300;10.180;2023-10-31T04:00:39;11.30;99.90
14057;DHT22;7103;54.300;10.180;2023-10-31T04:03:08;11.30;99.90
14057;DHT22;7103;54.300;10.180;2023-10-31T04:05:35;11.40;99.90
14057;DHT22;7103;54.300;10.180;2023-10-31T04:08:02;11.30;99.90
14057;DHT22;7103;54.300;10.180;2023-10-31T04:10:29;11.30;99.90
14057;DHT22;7103;54.300;10.180;2023-10-31T04:12:56;11.30;99.90
14057;DHT22;7103;54.300;10.180;2023-10-31T04:15:23;11.50;99.90
14057;DHT22;7103;54.300;10.180;2023-10-31T04:17:50;11.30;99.90
14057;DHT22;7103;54.300;10.180;2023-10-31T04:20:16;11.30;99.90
14057;DHT22;7103;54.300;10.180;2023-10-31T04:22:43;11.30;99.90
14057;DHT22;7103;54.300;10.180;2023-10-31T04:25:10;11.40;99.90
14057;DHT22;7103;54.300;10.180;2023-10-31T04:27:37;11.50;99.90
14057;DHT22;7103;54.300;10.180;2023-10-31T04:30:05;11.30;99.90
14057;DHT22;7103;54.300;10.180;2023-10-31T04:32:32;11.30;99.90
14057;DHT22;7103;54.300;10.180;2023-10-31T04:34:59;11.30;99.90
14057;DHT22;7103;54.300;10.180;2023-10-31T04:37:26;11.30;99.90
14057;DHT22;7103;54.300;10.180;2023-10-31T04:39:53;11.50;99.90
14057;DHT22;7103;54.300;10.180;2023-10-31T04:42:19;11.40;99.90
14057;DHT22;7103;54.300;10.180;2023-10-31T04:44:47;11.30;99.90
14057;DHT22;7103;54.300;10.180;2023-10-31T04:47:14;11.40;99.90
14057;DHT22;7103;54.300;10.180;2023-10-31T04:49:41;11.30;99.90
14057;DHT22;7103;54.300;10.180;2023-10-31T04:52:08;11.20;99.90
14057;DHT22;7103;54.300;10.180;2023-10-31T04:54:35;11.50;99.90
14057;DHT22;7103;54.300;10.180;2023-10-31T04:57:02;11.40;99.90
14057;DHT22;7103;54.300;10.180;2023-10-31T04:59:30;11.30;99.90
14057;DHT22;7103;54.300;10.180;2023-10-31T05:01:57;11.30;99.90
14057;DHT22;7103;54.300;10.180;2023-10-31T05:04:24;11.30;99.90
14057;DHT22;7103;54.300;10.180;2023-10-31T05:06:51;11.40;99.90
14057;DHT22;7103;54.300;10.180;2023-10-31T05:09:18;11.30;99.90
14057;DHT22;7103;54.300;10.180;2023-10-31T05:11:47;11.50;99.90
14057;DHT22;7103;54.300;10.180;2023-10-31T05:14:14;11.50;99.90
14057;DHT22;7103;54.300;10.180;2023-10-31T05:16:44;11.30;99.90
14057;DHT22;7103;54.300;10.180;2023-10-31T05:19:11;11.60;99.90
14057;DHT22;7103;54.300;10.180;2023-10-31T05:21:38;11.30;99.90
14057;DHT22;7103;54.300;10.180;2023-10-31T05:24:05;11.30;99.90
14057;DHT22;7103;54.300;10.180;2023-10-31T05:26:32;11.30;99.90
14057;DHT22;7103;54.300;10.180;2023-10-31T05:28:59;11.30;99.90
14057;DHT22;7103;54.300;10.180;2023-10-31T05:31:26;11.30;99.90
14057;DHT22;7103;54.300;10.180;2023-10-31T05:33:53;11.30;99.90
14057;DHT22;7103;54.300;10.180;2023-10-31T05:36:22;11.30;99.90
14057;DHT22;7103;54.300;10.180;2023-10-31T05:38:50;11.30;99.90
14057;DHT22;7103;54.300;10.180;2023-10-31T05:41:16;11.30;99.90
14057;DHT22;7103;54.300;10.180;2023-10-31T05:43:43;11.40;99.90
14057;DHT22;7103;54.300;10.180;2023-10-31T05:46:10;11.30;99.90
14057;DHT22;7103;54.300;10.180;2023-10-31T05:48:44;11.40;99.90
14057;DHT22;7103;54.300;10.180;2023-10-31T05:51:15;11.30;99.90
14057;DHT22;7103;54.300;10.180;2023-10-31T05:53:45;11.30;99.90
14057;DHT22;7103;54.300;10.180;2023-10-31T05:56:13;11.30;99.90
14057;DHT22;7103;54.300;10.180;2023-10-31T05:58:41;11.50;99.90
14057;DHT22;7103;54.300;10.180;2023-10-31T06:01:08;11.30;99.90
14057;DHT22;7103;54.300;10.180;2023-10-31T06:03:36;11.30;99.90
14057;DHT22;7103;54.300;10.180;2023-10-31T06:06:04;11.30;99.90
14057;DHT22;7103;54.300;10.180;2023-10-31T06:08:31;11.30;99.90
14057;DHT22;7103;54.300;10.180;2023-10-31T06:10:58;11.50;99.90
14057;DHT22;7103;54.300;10.180;2023-10-31T06:13:25;11.30;99.90
14057;DHT22;7103;54.300;10.180;2023-10-31T06:15:54;11.30;99.90
14057;DHT22;7103;54.300;10.180;2023-10-31T06:18:26;11.30;99.90
14057;DHT22;7103;54.300;10.180;2023-10-31T06:20:53;11.30;99.90
14057;DHT22;7103;54.300;10.180;2023-10-31T06:23:20;11.30;99.90
14057;DHT22;7103;54.300;10.180;2023-10-31T06:25:47;11.40;99.90
14057;DHT22;7103;54.300;10.180;2023-10-31T06:28:14;11.30;99.90
14057;DHT22;7103;54.300;10.180;2023-10-31T06:30:41;11.40;99.90
14057;DHT22;7103;54.300;10.180;2023-10-31T06:33:08;11.40;99.90
14057;DHT22;7103;54.300;10.180;2023-10-31T06:35:37;11.40;99.90
14057;DHT22;7103;54.300;10.180;2023-10-31T06:38:04;11.30;99.90
14057;DHT22;7103;54.300;10.180;2023-10-31T06:40:31;11.30;99.90
14057;DHT22;7103;54.300;10.180;2023-10-31T06:42:58;11.40;99.90
14057;DHT22;7103;54.300;10.180;2023-10-31T06:45:26;11.30;99.90
14057;DHT22;7103;54.300;10.180;2023-10-31T06:47:53;11.40;99.90
14057;DHT22;7103;54.300;10.180;2023-10-31T06:50:20;11.50;99.90
14057;DHT22;7103;54.300;10.180;2023-10-31T06:52:47;11.40;99.90
14057;DHT22;7103;54.300;10.180;2023-10-31T06:55:15;11.40;99.90
14057;DHT22;7103;54.300;10.180;2023-10-31T06:57:42;11.60;99.90
14057;DHT22;7103;54.300;10.180;2023-10-31T07:00:11;11.40;99.90
14057;DHT22;7103;54.300;10.180;2023-10-31T07:02:39;11.40;99.90
14057;DHT22;7103;54.300;10.180;2023-10-31T07:05:06;11.40;99.90
14057;DHT22;7103;54.300;10.180;2023-10-31T07:07:34;11.40;99.90
14057;DHT22;7103;54.300;10.180;2023-10-31T07:10:00;11.40;99.90
14057;DHT22;7103;54.300;10.180;2023-10-31T07:12:27;11.40;99.90
14057;DHT22;7103;54.300;10.180;2023-10-31T07:14:55;11.40;99.90
14057;DHT22;7103;54.300;10.180;2023-10-31T07:17:21;11.40;99.90
14057;DHT22;7103;54.300;10.180;2023-10-31T07:19:48;11.40;99.90
14057;DHT22;7103;54.300;10.180;2023-10-31T07:22:16;11.50;99.90
14057;DHT22;7103;54.300;10.180;2023-10-31T07:24:42;11.60;99.90
14057;DHT22;7103;54.300;10.180;2023-10-31T07:27:10;11.80;99.90
14057;DHT22;7103;54.300;10.180;2023-10-31T07:29:41;11.80;99.90
14057;DHT22;7103;54.300;10.180;2023-10-31T07:32:09;11.70;99.90
14057;DHT22;7103;54.300;10.180;2023-10-31T07:34:40;11.50;99.90
14057;DHT22;7103;54.300;10.180;2023-10-31T07:37:08;11.60;99.90
14057;DHT22;7103;54.300;10.180;2023-10-31T07:39:35;11.60;99.90
14057;DHT22;7103;54.300;10.180;2023-10-31T07:42:02;11.60;99.90
14057;DHT22;7103;54.300;10.180;2023-10-31T07:44:29;11.60;99.90
14057;DHT22;7103;54.300;10.180;2023-10-31T07:46:57;11.60;99.90
14057;DHT22;7103;54.300;10.180;2023-10-31T07:49:24;11.70;99.90
14057;DHT22;7103;54.300;10.180;2023-10-31T07:51:51;11.60;99.90
14057;DHT22;7103;54.300;10.180;2023-10-31T07:54:18;11.80;99.90
14057;DHT22;7103;54.300;10.180;2023-10-31T07:56:45;11.80;99.90
14057;DHT22;7103;54.300;10.180;2023-10-31T07:59:12;11.70;99.90
14057;DHT22;7103;54.300;10.180;2023-10-31T08:01:39;11.90;99.90
14057;DHT22;7103;54.300;10.180;2023-10-31T08:04:06;11.70;99.90
14057;DHT22;7103;54.300;10.180;2023-10-31T08:06:33;11.70;99.90
14057;DHT22;7103;54.300;10.180;2023-10-31T08:09:00;11.80;99.90
14057;DHT22;7103;54.300;10.180;2023-10-31T08:11:27;12.00;99.90
14057;DHT22;7103;54.300;10.180;2023-10-31T08:13:54;11.80;99.90
14057;DHT22;7103;54.300;10.180;2023-10-31T08:16:21;11.80;99.90
14057;DHT22;7103;54.300;10.180;2023-10-31T08:18:49;11.90;99.90
14057;DHT22;7103;54.300;10.180;2023-10-31T08:21:16;11.90;99.90
14057;DHT22;7103;54.300;10.180;2023-10-31T08:23:43;12.00;99.90
14057;DHT22;7103;54.300;10.180;2023-10-31T08:26:12;11.80;99.90
14057;DHT22;7103;54.300;10.180;2023-10-31T08:28:40;11.80;99.90
14057;DHT22;7103;54.300;10.180;2023-10-31T08:31:07;11.90;99.90
14057;DHT22;7103;54.300;10.180;2023-10-31T08:33:35;11.80;99.90
14057;DHT22;7103;54.300;10.180;2023-10-31T08:36:02;11.80;99.90
14057;DHT22;7103;54.300;10.180;2023-10-31T08:38:29;11.70;99.90
14057;DHT22;7103;54.300;10.180;2023-10-31T08:40:58;11.60;99.90
14057;DHT22;7103;54.300;10.180;2023-10-31T08:43:26;11.60;99.90
14057;DHT22;7103;54.300;10.180;2023-10-31T08:45:54;11.50;99.90
14057;DHT22;7103;54.300;10.180;2023-10-31T08:48:21;11.50;99.90
14057;DHT22;7103;54.300;10.180;2023-10-31T08:50:48;11.50;99.90
14057;DHT22;7103;54.300;10.180;2023-10-31T08:53:15;11.40;99.90
14057;DHT22;7103;54.300;10.180;2023-10-31T08:55:42;11.40;99.90
14057;DHT22;7103;54.300;10.180;2023-10-31T08:58:12;11.30;90.00
14057;DHT22;7103;54.300;10.180;2023-10-31T09:00:40;11.30;83.70
14057;DHT22;7103;54.300;10.180;2023-10-31T09:03:08;11.20;61.30
14057;DHT22;7103;54.300;10.180;2023-10-31T09:05:36;11.20;65.30
14057;DHT22;7103;54.300;10.180;2023-10-31T09:08:03;11.20;84.90
14057;DHT22;7103;54.300;10.180;2023-10-31T09:10:30;11.20;82.70
14057;DHT22;7103;54.300;10.180;2023-10-31T09:12:57;11.30;81.90
14057;DHT22;7103;54.300;10.180;2023-10-31T09:15:24;11.30;73.80
14057;DHT22;7103;54.300;10.180;2023-10-31T09:17:51;11.30;54.20
14057;DHT22;7103;54.300;10.180;2023-10-31T09:20:18;11.40;48.10
14057;DHT22;7103;54.300;10.180;2023-10-31T09:22:46;11.30;53.30
14057;DHT22;7103;54.300;10.180;2023-10-31T09:25:12;11.40;53.10
14057;DHT22;7103;54.300;10.180;2023-10-31T09:27:41;11.40;52.10
14057;DHT22;7103;54.300;10.180;2023-10-31T09:30:08;11.30;36.40
14057;DHT22;7103;54.300;10.180;2023-10-31T09:32:35;11.20;30.00
14057;DHT22;7103;54.300;10.180;2023-10-31T09:35:03;11.20;16.40
14057;DHT22;7103;54.300;10.180;2023-10-31T09:37:30;11.00;1.00
14057;DHT22;7103;54.300;10.180;2023-10-31T09:39:57;11.00;1.00
14057;DHT22;7103;54.300;10.180;2023-10-31T09:42:24;11.00;1.00
14057;DHT22;7103;54.300;10.180;2023-10-31T09:44:52;11.00;1.00
14057;DHT22;7103;54.300;10.180;2023-10-31T09:47:20;10.80;1.00
14057;DHT22;7103;54.300;10.180;2023-10-31T09:49:47;10.60;1.00
14057;DHT22;7103;54.300;10.180;2023-10-31T09:52:14;10.50;1.00
14057;DHT22;7103;54.300;10.180;2023-10-31T09:54:41;10.50;1.00
14057;DHT22;7103;54.300;10.180;2023-10-31T09:57:13;10.50;1.00
14057;DHT22;7103;54.300;10.180;2023-10-31T09:59:41;10.50;1.00
14057;DHT22;7103;54.300;10.180;2023-10-31T10:02:08;10.40;1.00
14057;DHT22;7103;54.300;10.180;2023-10-31T10:04:36;10.30;1.00
14057;DHT22;7103;54.300;10.180;2023-10-31T10:07:05;10.40;1.00
14057;DHT22;7103;54.300;10.180;2023-10-31T10:09:32;10.30;1.00
14057;DHT22;7103;54.300;10.180;2023-10-31T10:12:00;10.20;1.00
14057;DHT22;7103;54.300;10.180;2023-10-31T10:14:28;10.40;1.00
14057;DHT22;7103;54.300;10.180;2023-10-31T10:16:55;10.30;1.00
14057;DHT22;7103;54.300;10.180;2023-10-31T10:19:23;10.30;1.00
14057;DHT22;7103;54.300;10.180;2023-10-31T10:21:56;10.10;1.00
14057;DHT22;7103;54.300;10.180;2023-10-31T10:24:24;10.10;1.00
14057;DHT22;7103;54.300;10.180;2023-10-31T10:26:51;9.90;1.00
14057;DHT22;7103;54.300;10.180;2023-10-31T10:29:18;9.90;1.00
14057;DHT22;7103;54.300;10.180;2023-10-31T10:31:45;9.80;1.00
14057;DHT22;7103;54.300;10.180;2023-10-31T10:34:16;9.90;1.00
14057;DHT22;7103;54.300;10.180;2023-10-31T10:36:48;9.90;1.00
14057;DHT22;7103;54.300;10.180;2023-10-31T10:39:19;9.60;1.00
14057;DHT22;7103;54.300;10.180;2023-10-31T10:41:53;9.70;1.00
14057;DHT22;7103;54.300;10.180;2023-10-31T10:44:33;9.70;1.00
14057;DHT22;7103;54.300;10.180;2023-10-31T10:47:05;9.70;1.00
14057;DHT22;7103;54.300;10.180;2023-10-31T10:49:35;9.70;1.00
14057;DHT22;7103;54.300;10.180;2023-10-31T10:52:23;9.80;1.00
14057;DHT22;7103;54.300;10.180;2023-10-31T10:54:58;9.50;1.00
14057;DHT22;7103;54.300;10.180;2023-10-31T10:57:38;9.40;1.00
14057;DHT22;7103;54.300;10.180;2023-10-31T11:00:09;9.40;1.00
14057;DHT22;7103;54.300;10.180;2023-10-31T11:02:40;9.30;1.00
14057;DHT22;7103;54.300;10.180;2023-10-31T11:05:10;9.40;1.00
14057;DHT22;7103;54.300;10.180;2023-10-31T11:07:38;9.40;1.00
14057;DHT22;7103;54.300;10.180;2023-10-31T11:10:05;9.20;1.00
14057;DHT22;7103;54.300;10.180;2023-10-31T11:12:33;9.20;1.00
14057;DHT22;7103;54.300;10.180;2023-10-31T11:15:02;9.20;1.00
14057;DHT22;7103;54.300;10.180;2023-10-31T11:17:41;9.20;1.00
14057;DHT22;7103;54.300;10.180;2023-10-31T11:20:10;9.20;1.00
14057;DHT22;7103;54.300;10.180;2023-10-31T11:22:42;9.10;1.00
14057;DHT22;7103;54.300;10.180;2023-10-31T11:25:13;9.00;1.00
14057;DHT22;7103;54.300;10.180;2023-10-31T11:27:52;9.10;1.00
14057;DHT22;7103;54.300;10.180;2023-10-31T11:30:20;9.00;1.00
14057;DHT22;7103;54.300;10.180;2023-10-31T11:32:49;9.00;1.00
14057;DHT22;7103;54.300;10.180;2023-10-31T11:35:18;8.90;1.00
14057;DHT22;7103;54.300;10.180;2023-10-31T11:37:49;8.90;1.00
14057;DHT22;7103;54.300;10.180;2023-10-31T11:40:27;9.00;1.00
14057;DHT22;7103;54.300;10.180;2023-10-31T11:42:57;8.90;1.00
14057;DHT22;7103;54.300;10.180;2023-10-31T11:45:36;8.90;1.00
14057;DHT22;7103;54.300;10.180;2023-10-31T11:48:04;8.90;1.00
14057;DHT22;7103;54.300;10.180;2023-10-31T11:50:33;8.90;1.00
14057;DHT22;7103;54.300;10.180;2023-10-31T11:53:01;9.10;1.00
14057;DHT22;7103;54.300;10.180;2023-10-31T11:55:29;9.00;1.00
14057;DHT22;7103;54.300;10.180;2023-10-31T11:57:56;8.90;1.00
14057;DHT22;7103;54.300;10.180;2023-10-31T12:00:24;8.90;1.00
14057;DHT22;7103;54.300;10.180;2023-10-31T12:03:01;8.90;1.00
14057;DHT22;7103;54.300;10.180;2023-10-31T12:05:29;8.90;1.00
14057;DHT22;7103;54.300;10.180;2023-10-31T12:07:56;9.00;1.00
14057;DHT22;7103;54.300;10.180;2023-10-31T12:10:25;9.00;1.00
14057;DHT22;7103;54.300;10.180;2023-10-31T12:12:53;9.10;1.00
14057;DHT22;7103;54.300;10.180;2023-10-31T12:15:20;9.10;1.00
14057;DHT22;7103;54.300;10.180;2023-10-31T12:17:48;8.90;1.00
14057;DHT22;7103;54.300;10.180;2023-10-31T12:20:16;8.80;1.00
14057;DHT22;7103;54.300;10.180;2023-10-31T12:22:43;8.60;1.00
14057;DHT22;7103;54.300;10.180;2023-10-31T12:25:11;8.70;1.00
14057;DHT22;7103;54.300;10.180;2023-10-31T12:27:46;8.60;1.00
14057;DHT22;7103;54.300;10.180;2023-10-31T12:30:15;8.60;1.00
14057;DHT22;7103;54.300;10.180;2023-10-31T12:32:43;8.70;1.00
14057;DHT22;7103;54.300;10.180;2023-10-31T12:35:19;8.60;1.00
14057;DHT22;7103;54.300;10.180;2023-10-31T12:37:49;8.50;1.00
14057;DHT22;7103;54.300;10.180;2023-10-31T12:40:19;8.60;1.00
14057;DHT22;7103;54.300;10.180;2023-10-31T12:42:48;8.80;1.00
14057;DHT22;7103;54.300;10.180;2023-10-31T12:45:17;8.70;1.00
14057;DHT22;7103;54.300;10.180;2023-10-31T12:47:57;8.60;1.00
14057;DHT22;7103;54.300;10.180;2023-10-31T12:50:26;8.60;1.00
14057;DHT22;7103;54.300;10.180;2023-10-31T12:52:54;8.70;1.00
14057;DHT22;7103;54.300;10.180;2023-10-31T12:55:23;8.80;1.00
14057;DHT22;7103;54.300;10.180;2023-10-31T12:57:51;8.70;1.00
14057;DHT22;7103;54.300;10.180;2023-10-31T13:00:20;8.60;1.00
14057;DHT22;7103;54.300;10.180;2023-10-31T13:03:08;8.50;1.00
14057;DHT22;7103;54.300;10.180;2023-10-31T13:05:36;8.40;1.00
14057;DHT22;7103;54.300;10.180;2023-10-31T13:08:14;8.40;1.00
14057;DHT22;7103;54.300;10.180;2023-10-31T13:10:41;8.30;1.00
14057;DHT22;7103;54.300;10.180;2023-10-31T13:13:10;8.20;1.00
14057;DHT22;7103;54.300;10.180;2023-10-31T13:15:39;8.20;1.00
14057;DHT22;7103;54.300;10.180;2023-10-31T13:18:06;8.40;1.00
14057;DHT22;7103;54.300;10.180;2023-10-31T13:20:33;8.20;1.00
14057;DHT22;7103;54.300;10.180;2023-10-31T13:23:00;8.20;1.00
14057;DHT22;7103;54.300;10.180;2023-10-31T13:25:30;8.20;1.00
14057;DHT22;7103;54.300;10.180;2023-10-31T13:27:58;8.30;1.00
14057;DHT22;7103;54.300;10.180;2023-10-31T13:30:25;8.20;1.00
14057;DHT22;7103;54.300;10.180;2023-10-31T13:32:52;8.20;1.00
14057;DHT22;7103;54.300;10.180;2023-10-31T13:35:20;8.40;1.00
14057;DHT22;7103;54.300;10.180;2023-10-31T13:37:47;8.20;1.00
14057;DHT22;7103;54.300;10.180;2023-10-31T13:40:14;8.20;1.00
14057;DHT22;7103;54.300;10.180;2023-10-31T13:42:41;8.20;1.00
14057;DHT22;7103;54.300;10.180;2023-10-31T13:45:08;8.20;1.00
14057;DHT22;7103;54.300;10.180;2023-10-31T13:47:35;8.10;1.00
14057;DHT22;7103;54.300;10.180;2023-10-31T13:50:05;8.10;1.00
14057;DHT22;7103;54.300;10.180;2023-10-31T13:52:33;8.00;1.00
14057;DHT22;7103;54.300;10.180;2023-10-31T13:55:00;8.00;1.00
14057;DHT22;7103;54.300;10.180;2023-10-31T13:57:27;8.00;1.00
14057;DHT22;7103;54.300;10.180;2023-10-31T13:59:54;8.10;1.00
14057;DHT22;7103;54.300;10.180;2023-10-31T14:02:21;8.00;1.00
14057;DHT22;7103;54.300;10.180;2023-10-31T14:04:48;8.00;1.00
14057;DHT22;7103;54.300;10.180;2023-10-31T14:07:21;7.90;1.00
14057;DHT22;7103;54.300;10.180;2023-10-31T14:09:49;7.80;1.00
14057;DHT22;7103;54.300;10.180;2023-10-31T14:12:16;7.80;1.00
14057;DHT22;7103;54.300;10.180;2023-10-31T14:14:43;7.70;1.00
14057;DHT22;7103;54.300;10.180;2023-10-31T14:17:10;7.70;1.00
14057;DHT22;7103;54.300;10.180;2023-10-31T14:19:38;7.50;1.00
14057;DHT22;7103;54.300;10.180;2023-10-31T14:22:06;7.50;1.00
14057;DHT22;7103;54.300;10.180;2023-10-31T14:24:33;7.50;1.00
14057;DHT22;7103;54.300;10.180;2023-10-31T14:27:01;7.50;1.00
14057;DHT22;7103;54.300;10.180;2023-10-31T14:29:28;7.40;1.00
14057;DHT22;7103;54.300;10.180;2023-10-31T14:31:55;7.40;1.00
14057;DHT22;7103;54.300;10.180;2023-10-31T14:34:23;7.50;1.00
14057;DHT22;7103;54.300;10.180;2023-10-31T14:36:50;7.40;1.00
14057;DHT22;7103;54.300;10.180;2023-10-31T14:39:17;7.50;1.00
14057;DHT22;7103;54.300;10.180;2023-10-31T14:41:44;7.30;1.00
14057;DHT22;7103;54.300;10.180;2023-10-31T14:44:11;7.20;1.00
14057;DHT22;7103;54.300;10.180;2023-10-31T14:46:38;7.30;1.00
14057;DHT22;7103;54.300;10.180;2023-10-31T14:49:06;7.10;1.00
14057;DHT22;7103;54.300;10.180;2023-10-31T14:51:33;7.10;1.00
14057;DHT22;7103;54.300;10.180;2023-10-31T14:54:00;7.00;1.00
14057;DHT22;7103;54.300;10.180;2023-10-31T14:56:29;6.90;1.00
14057;DHT22;7103;54.300;10.180;2023-10-31T14:58:56;7.10;1.00
14057;DHT22;7103;54.300;10.180;2023-10-31T15:01:23;7.00;1.00
14057;DHT22;7103;54.300;10.180;2023-10-31T15:03:50;6.80;1.00
14057;DHT22;7103;54.300;10.180;2023-10-31T15:06:20;6.60;1.00
14057;DHT22;7103;54.300;10.180;2023-10-31T15:08:48;6.60;1.00
14057;DHT22;7103;54.300;10.180;2023-10-31T15:11:15;6.70;1.00
14057;DHT22;7103;54.300;10.180;2023-10-31T15:13:43;6.60;1.00
14057;DHT22;7103;54.300;10.180;2023-10-31T15:16:10;6.50;1.00
14057;DHT22;7103;54.300;10.180;2023-10-31T15:18:37;6.60;1.00
14057;DHT22;7103;54.300;10.180;2023-10-31T15:21:04;6.60;1.00
14057;DHT22;7103;54.300;10.180;2023-10-31T15:23:31;6.50;1.00
14057;DHT22;7103;54.300;10.180;2023-10-31T15:25:58;6.50;1.00
14057;DHT22;7103;54.300;10.180;2023-10-31T15:28:25;6.50;1.00
14057;DHT22;7103;54.300;10.180;2023-10-31T15:30:52;6.50;1.00
14057;DHT22;7103;54.300;10.180;2023-10-31T15:33:19;6.40;1.00
14057;DHT22;7103;54.300;10.180;2023-10-31T15:35:46;6.50;1.00
14057;DHT22;7103;54.300;10.180;2023-10-31T15:38:15;6.50;1.00
14057;DHT22;7103;54.300;10.180;2023-10-31T15:40:42;6.50;1.00
14057;DHT22;7103;54.300;10.180;2023-10-31T15:43:09;6.50;1.00
14057;DHT22;7103;54.300;10.180;2023-10-31T15:45:36;6.50;1.00
14057;DHT22;7103;54.300;10.180;2023-10-31T15:48:08;6.50;1.00